Time;durP1;ratioP1;P1;durP2;ratioP2;P2;SDS_P1;SDS_P2;PMS_P1;PMS_P2;Temp;Humidity;BMP_temperature;BMP_pressure;BME280_temperature;BME280_humidity;BME280_pressure;Samples;Min_cycle;Max_cycle;Signal;HPM_P1;HPM_P2
2022/06/18 00:01:49;;;;;;;4.55;3.40;;;21.50;75.20;;;;;;5011564;28;20069;-42
2022/06/18 00:04:19;;;;;;;7.93;3.50;;;21.50;75.60;;;;;;4993603;28;20104;-42
2022/06/18 00:06:49;;;;;;;11.55;4.05;;;21.50;76.20;;;;;;5013833;28;20053;-42
2022/06/18 00:09:16;;;;;;;7.32;3.65;;;21.50;77.00;;;;;;4996491;28;20044;-42
2022/06/18 00:14:29;;;;;;;9.85;3.67;;;21.40;77.60;;;;;;5011832;28;20058;-41
2022/06/18 00:16:56;;;;;;;8.13;3.65;;;21.30;77.90;;;;;;4994635;28;20141;-42
2022/06/18 00:19:23;;;;;;;10.00;3.88;;;21.30;78.00;;;;;;5013416;28;20053;-41
2022/06/18 00:21:50;;;;;;;8.25;3.50;;;21.20;78.70;;;;;;4993904;28;20045;-43
2022/06/18 00:24:19;;;;;;;6.28;3.65;;;21.20;78.80;;;;;;4995538;28;20086;-42
2022/06/18 00:26:46;;;;;;;6.50;3.40;;;21.20;79.50;;;;;;5011950;28;20478;-42
2022/06/18 00:29:14;;;;;;;5.85;3.75;;;21.10;80.10;;;;;;4995381;28;20081;-42
2022/06/18 00:31:43;;;;;;;8.98;3.80;;;21.10;79.80;;;;;;4994998;28;20104;-43
2022/06/18 00:34:09;;;;;;;7.45;4.10;;;21.00;80.60;;;;;;5011422;28;20077;-42
2022/06/18 00:36:36;;;;;;;6.78;4.07;;;21.00;81.90;;;;;;4987056;28;20074;-42
2022/06/18 00:39:04;;;;;;;9.30;4.10;;;20.90;82.80;;;;;;5013102;28;20533;-43
2022/06/18 00:41:32;;;;;;;5.15;3.53;;;20.90;83.10;;;;;;4992773;28;20397;-42
2022/06/18 00:44:01;;;;;;;9.73;3.97;;;20.90;83.20;;;;;;5012956;28;20107;-43
2022/06/18 00:46:30;;;;;;;10.20;4.32;;;20.90;83.50;;;;;;4991770;28;20504;-42
2022/06/18 00:49:01;;;;;;;6.55;4.25;;;20.90;84.50;;;;;;4977023;28;20094;-43
2022/06/18 00:51:31;;;;;;;7.53;4.95;;;20.90;85.40;;;;;;5005874;28;20173;-43
2022/06/18 00:54:02;;;;;;;10.52;4.47;;;20.90;85.90;;;;;;4994506;28;20136;-43
2022/06/18 00:56:30;;;;;;;;;;;20.90;85.80;;;;;;4990843;28;20092;-43
2022/06/18 00:58:59;;;;;;;7.75;4.13;;;20.80;84.30;;;;;;5009169;28;19928;-43
2022/06/18 01:01:30;;;;;;;7.75;4.25;;;20.80;85.10;;;;;;5011224;28;20037;-43
2022/06/18 01:03:58;;;;;;;8.68;4.32;;;20.90;85.60;;;;;;4995006;28;20108;-42
2022/06/18 01:06:26;;;;;;;7.78;4.20;;;20.80;85.60;;;;;;5000531;28;20077;-42
2022/06/18 01:08:56;;;;;;;5.05;4.15;;;20.80;85.70;;;;;;4995718;28;20129;-42
2022/06/18 01:11:26;;;;;;;5.95;4.13;;;20.90;86.10;;;;;;5009892;28;20037;-43
2022/06/18 01:13:52;;;;;;;7.45;4.90;;;20.80;86.30;;;;;;5010016;28;20092;-43
2022/06/18 01:16:19;;;;;;;7.53;4.30;;;20.90;86.20;;;;;;4994266;28;20133;-43
2022/06/18 01:18:46;;;;;;;11.35;4.03;;;20.80;87.30;;;;;;4992940;28;20057;-43
2022/06/18 01:21:19;;;;;;;9.40;3.72;;;20.80;86.80;;;;;;4993007;28;20482;-43
2022/06/18 01:23:48;;;;;;;6.43;3.60;;;20.80;86.80;;;;;;5008652;28;20099;-43
2022/06/18 01:26:16;;;;;;;13.00;4.00;;;20.80;86.10;;;;;;5011812;28;20088;-43
2022/06/18 01:28:43;;;;;;;7.22;5.03;;;20.80;86.20;;;;;;5012445;28;20050;-43
2022/06/18 01:31:10;;;;;;;8.75;4.70;;;20.70;87.50;;;;;;5008032;28;20481;-42
2022/06/18 01:33:37;;;;;;;12.20;5.05;;;20.70;88.40;;;;;;4993980;28;20120;-43
2022/06/18 01:36:06;;;;;;;8.13;5.47;;;20.70;89.20;;;;;;5011017;28;20543;-43
2022/06/18 01:38:32;;;;;;;11.23;5.25;;;20.60;89.30;;;;;;5011179;28;20053;-42
2022/06/18 01:41:49;;;;;;;12.30;5.38;;;20.60;89.90;;;;;;5003246;28;20096;-43
2022/06/18 01:43:53;;;;;;;9.30;5.95;;;20.60;90.10;;;;;;4995004;28;20046;-43
2022/06/18 01:46:19;;;;;;;6.55;4.70;;;20.60;90.20;;;;;;4986263;28;20139;-43
2022/06/18 01:48:46;;;;;;;10.18;5.70;;;20.60;90.00;;;;;;4987306;28;20132;-43
2022/06/18 01:51:14;;;;;;;9.35;5.15;;;20.50;90.20;;;;;;4987961;28;20050;-43
2022/06/18 01:53:44;;;;;;;17.65;5.90;;;20.50;90.20;;;;;;5004388;28;20054;-43
2022/06/18 01:56:13;;;;;;;10.88;5.93;;;20.50;90.50;;;;;;5001776;28;20082;-43
2022/06/18 01:58:41;;;;;;;12.68;6.47;;;20.40;90.60;;;;;;5010610;28;20516;-43
2022/06/18 02:01:12;;;;;;;13.40;6.28;;;20.40;90.80;;;;;;4990368;28;20366;-43
2022/06/18 02:03:39;;;;;;;10.23;5.00;;;20.40;90.90;;;;;;5000344;28;20046;-43
2022/06/18 02:06:06;;;;;;;13.20;6.60;;;20.40;90.60;;;;;;5012101;28;20367;-43
2022/06/18 02:08:33;;;;;;;11.82;6.50;;;20.30;91.00;;;;;;4987941;28;20457;-43
2022/06/18 02:11:02;;;;;;;8.82;6.18;;;20.30;91.30;;;;;;4992139;28;20038;-44
2022/06/18 02:13:32;;;;;;;9.68;5.90;;;20.30;91.40;;;;;;5007493;28;20064;-44
2022/06/18 02:15:59;;;;;;;7.18;5.28;;;20.20;91.30;;;;;;4985395;28;20045;-43
2022/06/18 02:18:27;;;;;;;9.98;5.63;;;20.20;91.10;;;;;;4992243;28;20434;-43
2022/06/18 02:20:55;;;;;;;11.70;6.53;;;20.20;91.10;;;;;;5001782;28;20107;-43
2022/06/18 02:23:22;;;;;;;10.23;6.60;;;20.20;91.50;;;;;;4995664;28;20049;-44
2022/06/18 02:25:49;;;;;;;7.60;5.80;;;20.20;91.60;;;;;;5012616;28;20061;-43
2022/06/18 02:28:19;;;;;;;6.45;4.72;;;20.10;91.70;;;;;;5014699;28;20473;-43
2022/06/18 02:30:52;;;;;;;8.15;5.18;;;20.10;91.10;;;;;;4997966;28;20046;-41
2022/06/18 02:33:28;;;;;;;7.93;5.18;;;20.10;91.00;;;;;;4997598;28;20497;-42
2022/06/18 02:35:56;;;;;;;7.38;5.10;;;20.00;91.00;;;;;;5013418;28;20054;-43
2022/06/18 02:38:23;;;;;;;11.20;5.53;;;20.00;91.20;;;;;;4993805;28;20081;-42
2022/06/18 02:40:50;;;;;;;11.23;6.40;;;19.90;91.50;;;;;;4976005;28;20046;-42
2022/06/18 02:43:17;;;;;;;11.05;6.13;;;19.90;91.70;;;;;;4995275;28;20054;-42
2022/06/18 02:45:44;;;;;;;11.55;6.75;;;19.90;91.80;;;;;;4977806;28;20054;-42
2022/06/18 02:48:11;;;;;;;12.52;7.20;;;19.80;91.80;;;;;;4993650;28;20046;-42
2022/06/18 02:50:39;;;;;;;10.90;7.00;;;19.80;92.20;;;;;;4976580;28;20096;-42
2022/06/18 02:53:08;;;;;;;8.30;5.00;;;19.80;92.20;;;;;;4995803;28;20438;-41
2022/06/18 02:55:36;;;;;;;9.73;6.30;;;19.70;91.80;;;;;;4995627;28;20487;-43
2022/06/18 02:58:05;;;;;;;9.90;6.03;;;19.70;91.90;;;;;;4976901;28;20077;-43
2022/06/18 03:00:36;;;;;;;15.73;8.60;;;19.70;92.00;;;;;;4992606;28;20104;-43
2022/06/18 03:03:03;;;;;;;17.35;9.07;;;19.60;92.80;;;;;;4992208;28;20053;-43
2022/06/18 03:05:30;;;;;;;8.32;6.30;;;19.60;93.00;;;;;;4993072;28;20104;-43
2022/06/18 03:07:56;;;;;;;15.00;8.27;;;19.60;92.70;;;;;;4996094;28;20458;-43
2022/06/18 03:13:09;;;;;;;9.68;7.28;;;19.50;93.10;;;;;;4976906;28;20047;-43
2022/06/18 03:15:36;;;;;;;8.98;6.65;;;19.50;93.10;;;;;;4994074;28;20046;-43
2022/06/18 03:18:03;;;;;;;8.88;6.22;;;19.50;92.90;;;;;;4977832;28;20046;-43
2022/06/18 03:20:31;;;;;;;14.90;8.63;;;19.40;92.50;;;;;;4993859;28;20129;-43
2022/06/18 03:22:58;;;;;;;12.48;7.07;;;19.40;92.90;;;;;;4994228;28;20050;-42
2022/06/18 03:25:26;;;;;;;10.63;7.35;;;19.40;92.70;;;;;;4995036;28;20046;-43
2022/06/18 03:27:54;;;;;;;11.38;9.05;;;19.30;92.70;;;;;;4977329;28;20047;-43
2022/06/18 03:34:14;;;;;;;10.82;7.22;;;19.30;92.60;;;;;;4981581;28;20093;-43
2022/06/18 03:36:40;;;;;;;14.80;8.38;;;19.30;93.40;;;;;;4998086;28;20381;-43
2022/06/18 03:39:08;;;;;;;12.15;7.63;;;19.20;93.40;;;;;;5011052;28;20062;-43
2022/06/18 03:41:36;;;;;;;15.38;9.40;;;19.20;93.30;;;;;;5011078;28;20070;-42
2022/06/18 03:44:03;;;;;;;10.35;7.22;;;19.20;93.80;;;;;;4998303;28;20451;-42
2022/06/18 03:46:30;;;;;;;15.90;9.60;;;19.20;93.40;;;;;;5004787;28;20109;-42
2022/06/18 03:48:58;;;;;;;10.90;8.55;;;19.20;94.10;;;;;;5002021;28;20034;-43
2022/06/18 03:51:25;;;;;;;15.95;10.77;;;19.20;94.00;;;;;;5007021;28;20140;-43
2022/06/18 03:53:52;;;;;;;14.10;10.70;;;19.20;94.40;;;;;;4977576;28;20054;-43
2022/06/18 03:56:20;;;;;;;11.52;7.40;;;19.20;94.60;;;;;;4997475;28;20060;-43
2022/06/18 03:58:49;;;;;;;12.05;9.00;;;19.10;93.90;;;;;;4992035;28;20042;-43
2022/06/18 04:01:19;;;;;;;12.60;8.27;;;19.20;94.30;;;;;;4979634;28;20053;-43
2022/06/18 04:03:49;;;;;;;16.17;9.73;;;19.20;94.00;;;;;;4999276;28;20401;-43
2022/06/18 04:06:16;;;;;;;17.35;11.23;;;19.20;94.40;;;;;;4976756;28;20375;-43
2022/06/18 04:08:43;;;;;;;18.13;12.02;;;19.20;95.00;;;;;;4995042;28;20054;-41
2022/06/18 04:11:10;;;;;;;16.27;9.90;;;19.20;95.70;;;;;;4996681;28;20101;-43
2022/06/18 04:13:36;;;;;;;19.80;11.15;;;19.20;95.80;;;;;;4994327;28;20089;-43
2022/06/18 04:16:06;;;;;;;21.08;11.43;;;19.20;96.10;;;;;;5012838;28;20042;-42
2022/06/18 04:18:33;;;;;;;23.73;12.25;;;19.20;96.60;;;;;;4983569;28;20532;-43
2022/06/18 04:21:00;;;;;;;21.63;11.98;;;19.20;97.00;;;;;;4989391;28;20043;-43
2022/06/18 04:23:26;;;;;;;18.48;11.35;;;19.20;97.20;;;;;;5010981;28;20038;-42
2022/06/18 04:25:53;;;;;;;26.60;12.40;;;19.20;97.60;;;;;;4984649;28;20054;-43
2022/06/18 04:28:20;;;;;;;18.95;12.65;;;19.10;97.90;;;;;;4982965;28;20092;-42
2022/06/18 04:30:47;;;;;;;29.00;11.98;;;19.20;98.30;;;;;;4983318;28;20042;-42
2022/06/18 04:33:16;;;;;;;18.73;11.82;;;19.20;98.20;;;;;;4976293;28;20044;-43
2022/06/18 04:35:42;;;;;;;18.67;12.02;;;19.30;98.40;;;;;;5003578;28;20070;-43
2022/06/18 04:38:11;;;;;;;26.42;12.98;;;19.30;98.40;;;;;;4984853;28;20501;-43
2022/06/18 04:40:37;;;;;;;23.80;12.60;;;19.30;98.80;;;;;;4990731;28;20100;-44
2022/06/18 04:43:05;;;;;;;22.88;12.63;;;19.30;98.90;;;;;;4991787;28;20046;-43
2022/06/18 04:45:32;;;;;;;24.67;13.10;;;19.30;99.10;;;;;;4974869;28;20564;-43
2022/06/18 04:47:59;;;;;;;26.70;14.00;;;19.30;99.40;;;;;;4993900;28;20104;-43
2022/06/18 04:50:28;;;;;;;23.38;13.07;;;19.30;99.60;;;;;;4991427;28;20064;-43
2022/06/18 04:52:55;;;;;;;17.77;11.63;;;19.30;99.80;;;;;;4991308;28;20101;-43
2022/06/18 04:55:22;;;;;;;25.92;12.95;;;19.30;99.60;;;;;;4976077;28;20073;-43
2022/06/18 04:57:49;;;;;;;22.17;13.25;;;19.40;99.60;;;;;;4994129;28;20093;-43
2022/06/18 05:00:17;;;;;;;26.60;13.13;;;19.40;99.60;;;;;;4990732;28;20513;-42
2022/06/18 05:02:44;;;;;;;26.17;13.13;;;19.40;99.70;;;;;;4990906;28;20097;-42
2022/06/18 05:05:13;;;;;;;27.42;13.30;;;19.40;99.80;;;;;;4993969;28;20104;-42
2022/06/18 05:07:42;;;;;;;24.05;13.65;;;19.40;99.90;;;;;;4976371;28;20108;-42
2022/06/18 05:10:09;;;;;;;27.90;13.88;;;19.50;99.90;;;;;;4989560;28;20100;-42
2022/06/18 05:12:36;;;;;;;29.08;16.25;;;19.40;99.90;;;;;;4984215;28;20491;-42
2022/06/18 05:15:03;;;;;;;27.10;14.45;;;19.50;99.90;;;;;;4974716;28;20104;-42
2022/06/18 05:17:31;;;;;;;33.15;14.23;;;19.50;99.90;;;;;;4975308;28;20079;-43
2022/06/18 05:19:58;;;;;;;37.90;14.80;;;19.50;99.90;;;;;;4973646;28;20038;-42
2022/06/18 05:22:25;;;;;;;26.52;13.73;;;19.60;99.90;;;;;;4992935;28;20053;-42
2022/06/18 05:24:53;;;;;;;26.35;14.00;;;19.60;99.90;;;;;;4970636;28;20050;-43
2022/06/18 05:27:22;;;;;;;34.38;14.85;;;19.70;99.90;;;;;;4975607;28;20070;-43
2022/06/18 05:29:49;;;;;;;33.00;14.13;;;19.80;99.90;;;;;;4973043;28;20054;-43
2022/06/18 05:32:16;;;;;;;24.80;13.27;;;19.80;99.90;;;;;;4974082;28;20085;-43
2022/06/18 05:34:42;;;;;;;26.00;14.50;;;19.90;99.90;;;;;;4991275;28;20453;-43
2022/06/18 05:37:12;;;;;;;24.75;14.77;;;19.90;99.90;;;;;;4971398;28;20046;-43
2022/06/18 05:39:38;;;;;;;28.80;14.73;;;20.00;99.90;;;;;;4985490;28;20077;-43
2022/06/18 05:42:07;;;;;;;24.77;13.75;;;20.10;99.90;;;;;;4990601;28;20074;-42
2022/06/18 05:44:34;;;;;;;26.52;14.00;;;20.10;99.90;;;;;;4972267;28;20054;-42
2022/06/18 05:47:01;;;;;;;41.75;14.60;;;20.20;99.90;;;;;;4991258;28;20046;-42
2022/06/18 05:49:28;;;;;;;28.20;14.18;;;20.20;99.90;;;;;;4975150;28;20045;-42
2022/06/18 05:51:55;;;;;;;31.45;15.02;;;20.30;99.90;;;;;;4991621;28;20085;-42
2022/06/18 05:54:21;;;;;;;29.80;13.48;;;20.40;99.90;;;;;;4991128;28;20043;-43
2022/06/18 05:56:50;;;;;;;28.73;14.20;;;20.50;99.90;;;;;;4991750;28;20050;-43
2022/06/18 05:59:18;;;;;;;25.35;13.80;;;20.60;99.80;;;;;;4973546;28;20126;-43
2022/06/18 06:01:45;;;;;;;31.00;14.70;;;20.70;99.50;;;;;;4987426;28;20054;-43
2022/06/18 06:04:12;;;;;;;27.70;13.98;;;20.70;99.30;;;;;;4987260;28;20426;-42
2022/06/18 06:06:38;;;;;;;27.00;13.65;;;20.80;99.10;;;;;;4988598;28;20137;-43
2022/06/18 06:09:05;;;;;;;28.27;13.02;;;20.80;99.00;;;;;;4971528;28;20054;-43
2022/06/18 06:11:32;;;;;;;26.40;13.40;;;20.90;98.70;;;;;;4974731;28;20438;-43
2022/06/18 06:13:59;;;;;;;24.52;13.25;;;21.00;98.60;;;;;;4972502;28;20050;-43
2022/06/18 06:16:27;;;;;;;33.45;13.57;;;21.10;98.70;;;;;;4969069;28;20097;-43
2022/06/18 06:18:54;;;;;;;21.83;13.80;;;21.20;98.60;;;;;;4987317;28;20050;-43
2022/06/18 06:21:21;;;;;;;25.23;14.82;;;21.40;98.10;;;;;;4972436;28;20444;-43
2022/06/18 06:23:49;;;;;;;31.20;16.10;;;21.40;97.80;;;;;;4990171;28;20073;-43
2022/06/18 06:26:19;;;;;;;29.65;15.18;;;21.50;97.60;;;;;;4972971;28;20463;-43
2022/06/18 06:28:45;;;;;;;31.05;14.70;;;21.60;97.40;;;;;;4988959;28;20124;-42
2022/06/18 06:31:13;;;;;;;22.80;11.88;;;21.70;97.20;;;;;;4972586;28;20046;-42
2022/06/18 06:33:41;;;;;;;26.88;13.38;;;21.80;96.90;;;;;;4989369;28;20038;-43
2022/06/18 06:36:09;;;;;;;22.13;13.43;;;22.00;96.70;;;;;;4989917;28;20621;-44
2022/06/18 06:38:37;;;;;;;25.98;11.35;;;22.10;96.40;;;;;;4974384;28;20050;-43
2022/06/18 06:41:05;;;;;;;23.83;11.52;;;22.20;96.20;;;;;;4991540;28;20068;-43
2022/06/18 06:43:31;;;;;;;24.55;12.30;;;22.30;95.70;;;;;;4992402;28;20449;-42
2022/06/18 06:45:58;;;;;;;25.40;11.32;;;22.40;95.40;;;;;;4989140;28;20406;-42
2022/06/18 06:48:25;;;;;;;21.27;11.40;;;22.50;95.10;;;;;;4991182;28;20039;-43
2022/06/18 06:50:53;;;;;;;23.10;12.15;;;22.60;94.60;;;;;;4974361;28;20502;-44
2022/06/18 06:53:20;;;;;;;23.42;11.73;;;22.70;94.60;;;;;;4975283;28;20082;-44
2022/06/18 06:58:31;;;;;;;25.52;10.70;;;22.90;94.30;;;;;;4995924;28;20430;-44
2022/06/18 07:00:58;;;;;;;28.15;11.90;;;23.00;94.00;;;;;;4993527;28;20105;-44
2022/06/18 07:03:29;;;;;;;25.67;11.02;;;23.10;93.80;;;;;;4973788;28;20065;-44
2022/06/18 07:06:13;;;;;;;26.02;9.80;;;23.20;93.80;;;;;;4976303;28;20446;-43
2022/06/18 07:08:41;;;;;;;20.30;10.13;;;23.30;93.50;;;;;;4987187;28;20397;-44
2022/06/18 07:11:08;;;;;;;14.55;7.63;;;23.50;93.20;;;;;;4987629;28;20116;-43
2022/06/18 07:13:35;;;;;;;18.27;7.20;;;23.60;92.70;;;;;;4960681;28;20394;-43
2022/06/18 07:16:02;;;;;;;16.67;7.40;;;23.70;92.40;;;;;;4983664;28;20089;-44
2022/06/18 07:18:31;;;;;;;17.40;6.90;;;23.80;92.20;;;;;;4984960;28;20149;-43
2022/06/18 07:21:00;;;;;;;20.42;7.25;;;23.90;92.00;;;;;;4988285;28;20038;-45
2022/06/18 07:23:27;;;;;;;18.90;6.78;;;24.10;91.80;;;;;;4962417;28;20071;-44
2022/06/18 07:25:53;;;;;;;16.98;7.20;;;24.20;91.40;;;;;;4959964;28;20447;-44
2022/06/18 07:28:20;;;;;;;15.55;5.82;;;24.30;91.00;;;;;;4976956;28;20157;-43
2022/06/18 07:30:47;;;;;;;16.92;6.63;;;24.50;91.00;;;;;;4975807;28;20054;-43
2022/06/18 07:33:15;;;;;;;16.98;6.22;;;24.60;90.60;;;;;;4994452;28;20093;-43
2022/06/18 07:35:42;;;;;;;16.75;6.60;;;24.70;90.50;;;;;;4994634;28;20074;-44
2022/06/18 07:38:10;;;;;;;13.88;6.00;;;24.90;90.40;;;;;;5008088;28;20049;-44
2022/06/18 07:40:40;;;;;;;16.23;6.28;;;25.00;90.20;;;;;;5002111;28;20073;-43
2022/06/18 07:43:08;;;;;;;15.82;5.72;;;25.10;89.80;;;;;;4996313;28;20069;-42
2022/06/18 07:45:34;;;;;;;14.70;5.32;;;25.20;89.60;;;;;;5013718;28;20073;-44
2022/06/18 07:48:01;;;;;;;13.52;5.45;;;25.30;88.70;;;;;;4993897;28;20129;-44
2022/06/18 07:50:29;;;;;;;16.13;5.93;;;25.40;87.90;;;;;;5013339;28;20548;-43
2022/06/18 07:52:56;;;;;;;13.38;5.70;;;25.50;88.00;;;;;;5007206;28;20133;-44
2022/06/18 07:55:26;;;;;;;11.63;4.80;;;25.60;87.40;;;;;;5002371;28;20050;-43
2022/06/18 07:57:53;;;;;;;12.88;4.47;;;25.70;87.30;;;;;;5008049;28;20070;-43
2022/06/18 08:00:20;;;;;;;12.18;4.38;;;25.80;87.00;;;;;;5004743;28;20073;-44
2022/06/18 08:02:47;;;;;;;12.10;4.38;;;25.90;85.90;;;;;;4978618;28;20046;-43
2022/06/18 08:05:19;;;;;;;13.15;4.25;;;26.00;85.20;;;;;;5002083;28;20103;-43
2022/06/18 08:07:46;;;;;;;14.80;4.72;;;26.10;85.00;;;;;;5014079;28;20096;-43
2022/06/18 08:10:12;;;;;;;14.98;4.47;;;26.10;84.00;;;;;;5002943;28;20501;-43
2022/06/18 08:12:40;;;;;;;12.70;4.30;;;26.10;84.70;;;;;;5007484;28;20050;-44
2022/06/18 08:15:09;;;;;;;8.07;4.20;;;26.30;84.90;;;;;;5009412;28;20073;-44
2022/06/18 08:17:36;;;;;;;11.50;4.22;;;26.40;84.40;;;;;;4988820;28;20137;-43
2022/06/18 08:20:03;;;;;;;12.60;4.68;;;26.50;83.50;;;;;;4987334;28;20046;-44
2022/06/18 08:22:30;;;;;;;17.38;5.40;;;26.70;83.60;;;;;;5009597;28;20133;-43
2022/06/18 08:24:57;;;;;;;9.60;3.60;;;26.70;82.40;;;;;;5009286;28;20393;-43
2022/06/18 08:27:24;;;;;;;11.35;4.43;;;26.80;82.20;;;;;;5013305;28;20062;-43
2022/06/18 08:29:52;;;;;;;15.85;4.25;;;26.90;81.70;;;;;;5007850;28;20038;-44
2022/06/18 08:32:19;;;;;;;12.15;4.35;;;27.00;81.00;;;;;;5011652;28;20066;-44
2022/06/18 08:34:45;;;;;;;13.00;3.83;;;27.10;80.90;;;;;;5013604;28;20053;-44
2022/06/18 08:37:12;;;;;;;11.77;3.90;;;27.10;81.30;;;;;;4998588;28;20489;-44
2022/06/18 08:39:39;;;;;;;11.73;3.67;;;27.20;80.80;;;;;;4993859;28;20133;-43
2022/06/18 08:42:13;;;;;;;11.88;3.20;;;27.20;79.90;;;;;;4976167;28;20413;-44
2022/06/18 08:45:12;;;;;;;14.00;3.78;;;27.30;79.60;;;;;;4973968;28;20089;-43
2022/06/18 08:47:47;;;;;;;14.27;4.15;;;27.50;79.50;;;;;;4988235;28;20490;-44
2022/06/18 08:50:42;;;;;;;8.65;3.60;;;27.60;78.20;;;;;;4988958;28;20505;-44
2022/06/18 08:53:35;;;;;;;13.77;3.15;;;27.70;77.90;;;;;;4960613;28;20073;-44
2022/06/18 08:56:05;;;;;;;15.75;3.40;;;27.80;79.40;;;;;;4939052;28;20483;-44
2022/06/18 08:58:36;;;;;;;11.45;3.50;;;28.00;79.10;;;;;;4975835;28;20517;-44
2022/06/18 09:01:06;;;;;;;8.75;3.42;;;28.20;77.40;;;;;;4991636;28;20086;-43
2022/06/18 09:03:41;;;;;;;9.05;3.22;;;28.30;76.50;;;;;;4991200;28;20137;-44
2022/06/18 09:06:16;;;;;;;12.25;3.95;;;28.30;76.40;;;;;;4993406;28;20057;-44
2022/06/18 09:08:54;;;;;;;12.38;3.80;;;28.30;75.80;;;;;;4972073;28;20046;-44
2022/06/18 09:11:26;;;;;;;9.20;3.75;;;28.40;76.30;;;;;;4990206;28;20481;-44
2022/06/18 09:13:57;;;;;;;9.73;3.97;;;28.60;75.70;;;;;;4974643;28;20101;-44
2022/06/18 09:16:28;;;;;;;10.77;3.30;;;28.70;75.40;;;;;;4977333;28;20044;-44
2022/06/18 09:18:56;;;;;;;9.32;3.53;;;28.80;75.40;;;;;;4974931;28;20042;-44
2022/06/18 09:21:25;;;;;;;13.80;3.97;;;28.90;73.90;;;;;;4992661;28;20126;-43
2022/06/18 09:23:54;;;;;;;16.02;4.50;;;29.00;73.20;;;;;;4991799;28;20124;-44
2022/06/18 09:26:22;;;;;;;11.50;3.70;;;29.10;73.30;;;;;;4992781;28;20090;-43
2022/06/18 09:28:52;;;;;;;12.82;4.32;;;29.10;73.50;;;;;;4974103;28;20100;-44
2022/06/18 09:31:21;;;;;;;9.38;3.70;;;29.20;72.90;;;;;;4968346;28;20072;-44
2022/06/18 09:33:52;;;;;;;11.68;3.67;;;29.30;72.80;;;;;;4988729;28;20062;-44
2022/06/18 09:36:20;;;;;;;11.50;4.28;;;29.30;72.70;;;;;;4970424;28;20129;-45
2022/06/18 09:38:48;;;;;;;8.63;3.53;;;29.30;72.30;;;;;;5010367;28;20045;-45
2022/06/18 09:41:17;;;;;;;12.73;4.28;;;29.30;72.70;;;;;;5007757;28;20045;-45
2022/06/18 09:43:51;;;;;;;11.20;4.35;;;29.30;72.70;;;;;;4996080;28;20061;-44
2022/06/18 09:46:20;;;;;;;12.88;3.72;;;29.20;72.30;;;;;;5012961;28;20070;-43
2022/06/18 09:48:47;;;;;;;8.10;3.05;;;29.20;72.90;;;;;;5005357;28;20042;-44
2022/06/18 09:51:19;;;;;;;8.13;3.45;;;29.30;72.70;;;;;;5006347;28;20049;-44
2022/06/18 09:53:45;;;;;;;7.18;2.80;;;29.50;71.50;;;;;;4995348;28;20060;-44
2022/06/18 09:56:14;;;;;;;8.68;2.70;;;29.50;71.80;;;;;;4994108;28;20192;-44
2022/06/18 09:58:43;;;;;;;10.98;3.60;;;29.50;71.10;;;;;;5005277;28;20153;-44
2022/06/18 10:01:10;;;;;;;10.57;3.20;;;29.70;71.10;;;;;;5009935;28;20444;-44
2022/06/18 10:09:08;;;;;;;10.48;3.38;;;30.00;70.10;;;;;;5005085;28;20050;-43
2022/06/18 10:11:36;;;;;;;12.38;3.15;;;30.10;70.10;;;;;;5005622;28;20046;-43
2022/06/18 10:14:04;;;;;;;9.98;3.10;;;30.20;69.90;;;;;;4991939;28;20128;-44
2022/06/18 10:16:37;;;;;;;11.40;3.03;;;30.30;69.70;;;;;;5008815;28;20494;-43
2022/06/18 10:19:07;;;;;;;11.88;3.42;;;30.30;69.90;;;;;;5005861;28;20462;-43
2022/06/18 10:21:39;;;;;;;10.20;3.10;;;30.40;67.90;;;;;;5004486;28;20145;-44
2022/06/18 10:24:09;;;;;;;7.47;2.72;;;30.30;68.60;;;;;;5004958;28;20540;-43
2022/06/18 10:26:38;;;;;;;7.82;3.08;;;30.30;69.30;;;;;;5008396;28;20042;-44
2022/06/18 10:29:11;;;;;;;6.47;2.83;;;30.30;69.40;;;;;;4988135;28;20184;-44
2022/06/18 10:31:44;;;;;;;10.73;3.75;;;30.50;68.80;;;;;;5011046;28;20069;-44
2022/06/18 10:34:23;;;;;;;12.10;3.60;;;30.60;68.10;;;;;;5001835;28;20057;-44
2022/06/18 10:36:55;;;;;;;9.93;3.55;;;30.70;67.90;;;;;;5009542;28;20054;-44
2022/06/18 10:39:23;;;;;;;10.20;3.47;;;30.60;67.80;;;;;;4993625;28;20046;-44
2022/06/18 10:42:02;;;;;;;11.57;3.95;;;30.50;68.40;;;;;;5007147;28;20545;-44
2022/06/18 10:44:35;;;;;;;6.90;2.80;;;30.50;67.60;;;;;;5010565;28;20082;-43
2022/06/18 10:47:04;;;;;;;10.50;2.92;;;30.60;67.50;;;;;;4995533;28;20042;-44
2022/06/18 10:49:32;;;;;;;9.20;3.22;;;30.70;68.00;;;;;;4992443;28;20054;-43
2022/06/18 10:52:00;;;;;;;6.43;2.47;;;30.80;67.10;;;;;;4996624;28;20046;-43
2022/06/18 10:54:30;;;;;;;13.68;2.80;;;30.90;66.90;;;;;;5009275;28;20042;-44
2022/06/18 10:56:58;;;;;;;;;;;31.00;67.00;;;;;;4991588;28;20065;-43
2022/06/18 10:59:31;;;;;;;8.45;2.78;;;31.10;68.30;;;;;;5006248;28;19925;-44
2022/06/18 11:02:04;;;;;;;8.93;2.90;;;31.20;66.20;;;;;;4988779;28;20046;-44
2022/06/18 11:04:32;;;;;;;6.18;2.42;;;31.20;65.40;;;;;;5006799;28;20500;-44
2022/06/18 11:07:01;;;;;;;6.28;2.78;;;31.20;65.50;;;;;;4992022;28;20168;-43
2022/06/18 11:09:30;;;;;;;8.05;2.33;;;31.30;64.90;;;;;;5010897;28;20489;-42
2022/06/18 11:12:00;;;;;;;7.28;2.42;;;31.40;65.80;;;;;;4992786;28;20108;-43
2022/06/18 11:14:27;;;;;;;7.03;2.67;;;31.60;66.60;;;;;;4991924;28;20081;-44
2022/06/18 11:16:55;;;;;;;10.55;3.13;;;31.70;64.50;;;;;;4996694;28;20516;-44
2022/06/18 11:19:27;;;;;;;10.80;2.97;;;31.70;64.30;;;;;;4994302;28;20416;-44
2022/06/18 11:21:54;;;;;;;6.28;2.17;;;31.80;64.10;;;;;;4997350;28;20129;-44
2022/06/18 11:24:29;;;;;;;7.70;2.70;;;31.90;63.90;;;;;;4991990;28;20046;-44
2022/06/18 11:26:57;;;;;;;7.47;2.55;;;32.00;63.80;;;;;;4995919;28;20050;-44
2022/06/18 11:29:29;;;;;;;6.47;2.40;;;32.00;63.40;;;;;;5012636;28;20100;-43
2022/06/18 11:31:57;;;;;;;4.93;2.20;;;32.10;63.60;;;;;;5011105;28;20084;-45
2022/06/18 11:34:26;;;;;;;8.57;2.72;;;32.20;63.10;;;;;;4996416;28;20053;-44
2022/06/18 11:36:53;;;;;;;12.00;2.78;;;32.20;62.70;;;;;;4986371;28;20133;-44
2022/06/18 11:39:36;;;;;;;7.82;2.60;;;32.20;63.00;;;;;;5006527;28;20038;-44
2022/06/18 11:42:08;;;;;;;6.40;2.30;;;32.20;61.90;;;;;;4994723;28;20042;-44
2022/06/18 11:44:38;;;;;;;5.63;2.10;;;31.90;62.60;;;;;;5007025;28;20050;-43
2022/06/18 11:47:09;;;;;;;15.30;2.40;;;31.80;63.20;;;;;;5011387;28;20443;-45
2022/06/18 11:49:39;;;;;;;6.13;2.00;;;31.70;63.10;;;;;;5010812;28;20417;-44
2022/06/18 11:52:10;;;;;;;7.15;2.45;;;31.80;64.00;;;;;;4983866;28;20100;-43
2022/06/18 11:54:42;;;;;;;5.28;1.98;;;31.80;62.50;;;;;;5005722;28;20085;-44
2022/06/18 11:57:15;;;;;;;7.30;2.10;;;31.90;63.60;;;;;;5014675;28;20058;-44
2022/06/18 11:59:44;;;;;;;5.32;2.00;;;31.90;62.60;;;;;;4997144;28;20125;-44
2022/06/18 12:02:12;;;;;;;13.32;2.60;;;32.00;63.90;;;;;;5013072;28;20474;-44
2022/06/18 12:04:42;;;;;;;7.07;1.90;;;32.20;61.80;;;;;;5000224;28;20046;-44
2022/06/18 12:07:12;;;;;;;8.50;2.40;;;32.20;62.40;;;;;;5013872;28;20046;-44
2022/06/18 12:09:41;;;;;;;5.40;1.83;;;32.40;62.20;;;;;;5001704;28;20088;-44
2022/06/18 12:12:33;;;;;;;4.50;2.00;;;32.50;62.30;;;;;;5004456;28;20066;-44
2022/06/18 12:15:03;;;;;;;3.75;1.80;;;32.70;62.50;;;;;;4987903;28;20133;-43
2022/06/18 12:17:33;;;;;;;4.85;1.70;;;32.50;62.90;;;;;;4995355;28;20054;-44
2022/06/18 12:20:02;;;;;;;7.78;1.80;;;32.30;63.00;;;;;;5013958;28;20041;-44
2022/06/18 12:22:38;;;;;;;3.35;1.70;;;32.20;63.50;;;;;;5013212;28;20072;-43
2022/06/18 12:25:18;;;;;;;4.65;1.90;;;32.10;63.60;;;;;;4993926;28;20514;-43
2022/06/18 12:27:50;;;;;;;4.93;1.73;;;31.90;63.80;;;;;;4993255;28;20446;-45
2022/06/18 12:30:19;;;;;;;4.18;1.52;;;31.80;63.80;;;;;;5008247;28;20457;-43
2022/06/18 12:32:51;;;;;;;4.70;1.63;;;31.80;64.30;;;;;;5013344;28;20445;-43
2022/06/18 12:35:25;;;;;;;4.13;1.63;;;31.70;64.20;;;;;;5011998;28;20065;-43
2022/06/18 12:37:58;;;;;;;5.38;1.40;;;31.60;63.70;;;;;;4992258;28;20104;-44
2022/06/18 12:40:32;;;;;;;5.07;1.73;;;31.50;64.60;;;;;;4982963;28;20046;-43
2022/06/18 12:43:02;;;;;;;3.63;1.55;;;31.50;64.20;;;;;;4976283;28;20474;-43
2022/06/18 12:45:37;;;;;;;4.15;1.48;;;31.30;64.80;;;;;;4992791;28;20038;-43
2022/06/18 12:48:06;;;;;;;4.55;1.55;;;31.40;64.90;;;;;;4993162;28;20458;-43
2022/06/18 12:50:43;;;;;;;5.75;1.73;;;31.50;65.10;;;;;;4975417;28;20164;-44
2022/06/18 12:53:18;;;;;;;4.95;1.52;;;31.90;64.80;;;;;;4991770;28;20109;-44
2022/06/18 12:55:48;;;;;;;3.90;1.50;;;32.00;63.70;;;;;;4994219;28;20054;-44
2022/06/18 12:58:19;;;;;;;6.78;1.35;;;32.10;63.90;;;;;;4992458;28;20057;-43
2022/06/18 13:00:50;;;;;;;5.43;1.50;;;32.20;64.00;;;;;;4973067;28;20050;-44
2022/06/18 13:03:42;;;;;;;5.93;1.50;;;32.30;63.30;;;;;;4990879;28;20054;-45
2022/06/18 13:06:12;;;;;;;4.80;1.38;;;32.50;63.70;;;;;;4992862;28;20117;-44